createdAt,value
2023-02-23T00:01:49.225Z,8.10
2023-02-23T00:03:51.795Z,8.20
2023-02-23T00:05:54.465Z,8.30
2023-02-23T00:07:56.640Z,8.30
2023-02-23T00:09:59.934Z,8.30
2023-02-23T00:12:10.073Z,8.20
2023-02-23T00:14:12.466Z,8.10
2023-02-23T00:16:15.776Z,8.10
2023-02-23T00:18:17.675Z,8.20
2023-02-23T00:20:25.288Z,8.30
2023-02-23T00:22:27.785Z,8.30
2023-02-23T00:24:30.840Z,8.30
2023-02-23T00:26:35.311Z,8.20
2023-02-23T00:28:38.373Z,8.10
2023-02-23T00:30:42.835Z,8.10
2023-02-23T00:32:45.429Z,8.10
2023-02-23T00:34:50.435Z,8.20
2023-02-23T00:36:54.527Z,8.20
2023-02-23T00:38:57.676Z,8.20
2023-02-23T00:40:59.567Z,8.20
2023-02-23T00:43:01.652Z,8.20
2023-02-23T00:45:08.502Z,8.10
2023-02-23T00:47:12.236Z,8.10
2023-02-23T00:49:13.839Z,8.20
2023-02-23T00:51:16.297Z,8.20
2023-02-23T00:53:18.020Z,8.20
2023-02-23T00:55:21.931Z,8.20
2023-02-23T00:57:23.738Z,8.20
2023-02-23T00:59:37.547Z,8.20
2023-02-23T01:01:39.275Z,8.20
2023-02-23T01:03:41.477Z,8.30
2023-02-23T01:05:43.921Z,8.30
2023-02-23T01:07:46.412Z,8.30
2023-02-23T01:09:48.105Z,8.30
2023-02-23T01:11:49.688Z,8.20
2023-02-23T01:13:52.475Z,8.10
2023-02-23T01:15:54.135Z,8.10
2023-02-23T01:17:55.736Z,8.20
2023-02-23T01:19:57.382Z,8.30
2023-02-23T01:21:58.908Z,8.30
2023-02-23T01:24:00.878Z,8.30
2023-02-23T01:26:02.432Z,8.30
2023-02-23T01:28:04.174Z,8.10
2023-02-23T01:30:06.372Z,8.10
2023-02-23T01:32:08.010Z,8.00
2023-02-23T01:34:11.770Z,8.10
2023-02-23T01:36:13.808Z,8.10
2023-02-23T01:38:15.741Z,8.10
2023-02-23T01:40:28.993Z,8.10
2023-02-23T01:42:30.519Z,8.00
2023-02-23T01:44:34.739Z,8.00
2023-02-23T01:46:38.983Z,8.00
2023-02-23T01:48:40.655Z,8.00
2023-02-23T01:51:02.830Z,8.00
2023-02-23T01:53:05.402Z,8.00
2023-02-23T01:55:12.866Z,7.90
2023-02-23T01:57:14.707Z,8.00
2023-02-23T01:59:16.707Z,7.90
2023-02-23T02:01:19.119Z,8.00
2023-02-23T02:03:26.681Z,7.90
2023-02-23T02:05:28.843Z,7.90
2023-02-23T02:07:30.950Z,7.90
2023-02-23T02:09:37.811Z,7.90
2023-02-23T02:11:44.318Z,7.90
2023-02-23T02:13:46.336Z,7.90
2023-02-23T02:15:54.064Z,7.90
2023-02-23T02:18:10.595Z,7.90
2023-02-23T02:20:31.296Z,7.80
2023-02-23T02:22:54.111Z,7.80
2023-02-23T02:24:58.745Z,7.80
2023-02-23T02:27:10.560Z,7.80
2023-02-23T02:29:32.851Z,7.90
2023-02-23T02:31:43.751Z,7.90
2023-02-23T02:34:00.162Z,7.90
2023-02-23T02:36:04.857Z,7.90
2023-02-23T02:38:16.514Z,7.80
2023-02-23T02:40:26.623Z,7.90
2023-02-23T02:42:28.292Z,7.90
2023-02-23T02:44:36.156Z,7.80
2023-02-23T02:46:39.073Z,7.80
2023-02-23T02:48:46.806Z,7.80
2023-02-23T02:50:56.164Z,7.90
2023-02-23T02:53:07.082Z,7.80
2023-02-23T02:55:12.480Z,7.80
2023-02-23T02:57:15.039Z,7.70
2023-02-23T02:59:36.324Z,7.70
2023-02-23T03:01:56.410Z,7.80
2023-02-23T03:04:17.658Z,7.80
2023-02-23T03:06:39.838Z,7.80
2023-02-23T03:09:06.309Z,7.80
2023-02-23T03:11:28.383Z,7.80
2023-02-23T03:13:51.734Z,7.80
2023-02-23T03:16:33.333Z,7.80
2023-02-23T03:19:13.667Z,7.80
2023-02-23T03:21:35.324Z,7.70
2023-02-23T03:23:55.381Z,7.70
2023-02-23T03:26:23.738Z,7.80
2023-02-23T03:28:48.339Z,7.80
2023-02-23T03:31:12.352Z,7.80
2023-02-23T03:33:38.544Z,7.80
2023-02-23T03:36:05.855Z,7.70
2023-02-23T03:38:35.996Z,7.80
2023-02-23T03:40:57.790Z,7.80
2023-02-23T03:43:20.057Z,7.80
2023-02-23T03:45:42.881Z,7.80
2023-02-23T03:48:03.554Z,7.80
2023-02-23T03:50:25.626Z,7.80
2023-02-23T03:52:48.351Z,7.90
2023-02-23T03:55:11.958Z,7.90
2023-02-23T03:57:35.743Z,7.90
2023-02-23T03:59:58.906Z,7.90
2023-02-23T04:02:19.651Z,7.90
2023-02-23T04:04:40.931Z,7.90
2023-02-23T04:07:03.070Z,7.90
2023-02-23T04:09:25.174Z,7.90
2023-02-23T04:12:04.354Z,7.80
2023-02-23T04:14:08.560Z,7.80
2023-02-23T04:16:10.787Z,7.90
2023-02-23T04:18:14.385Z,7.80
2023-02-23T04:20:16.114Z,7.80
2023-02-23T04:22:17.821Z,7.90
2023-02-23T04:24:19.562Z,7.90
2023-02-23T04:26:21.280Z,7.90
2023-02-23T04:28:24.351Z,7.90
2023-02-23T04:30:28.322Z,8.00
2023-02-23T04:32:30.706Z,8.00
2023-02-23T04:34:32.321Z,8.00
2023-02-23T04:36:34.327Z,8.00
2023-02-23T04:38:35.903Z,8.00
2023-02-23T04:40:37.540Z,8.00
2023-02-23T04:42:39.834Z,8.00
2023-02-23T04:44:41.513Z,8.00
2023-02-23T04:46:43.108Z,8.00
2023-02-23T04:48:44.698Z,8.00
2023-02-23T04:50:46.254Z,7.90
2023-02-23T04:52:48.686Z,8.00
2023-02-23T04:54:50.313Z,8.00
2023-02-23T04:56:52.626Z,8.00
2023-02-23T04:58:54.381Z,8.00
2023-02-23T05:00:55.968Z,8.00
2023-02-23T05:02:57.933Z,8.00
2023-02-23T05:04:59.562Z,8.00
2023-02-23T05:07:01.874Z,7.90
2023-02-23T05:09:03.692Z,8.00
2023-02-23T05:11:05.941Z,7.90
2023-02-23T05:13:07.582Z,7.90
2023-02-23T05:15:10.938Z,7.90
2023-02-23T05:17:12.565Z,7.90
2023-02-23T05:19:14.382Z,7.90
2023-02-23T05:21:16.039Z,7.90
2023-02-23T05:23:17.782Z,7.90
2023-02-23T05:25:19.400Z,7.80
2023-02-23T05:27:21.032Z,7.80
2023-02-23T05:29:22.704Z,7.80
2023-02-23T05:31:24.938Z,7.80
2023-02-23T05:33:26.697Z,7.70
2023-02-23T05:35:28.414Z,7.70
2023-02-23T05:37:29.989Z,7.80
2023-02-23T05:39:31.607Z,7.80
2023-02-23T05:41:33.257Z,7.80
2023-02-23T05:43:34.916Z,7.80
2023-02-23T05:45:41.623Z,7.70
2023-02-23T05:47:43.235Z,7.70
2023-02-23T05:49:46.105Z,7.80
2023-02-23T05:51:47.720Z,7.80
2023-02-23T05:53:49.294Z,7.80
2023-02-23T05:55:52.112Z,7.80
2023-02-23T05:57:53.757Z,7.80
2023-02-23T05:59:55.538Z,7.80
2023-02-23T06:01:57.092Z,7.80
2023-02-23T06:03:59.008Z,7.80
2023-02-23T06:06:00.709Z,7.80
2023-02-23T06:08:02.656Z,7.80
2023-02-23T06:10:04.694Z,7.80
2023-02-23T06:12:06.619Z,7.90
2023-02-23T06:14:08.255Z,7.80
2023-02-23T06:16:09.996Z,7.90
2023-02-23T06:18:11.590Z,7.80
2023-02-23T06:20:13.647Z,7.80
2023-02-23T06:22:17.382Z,7.70
2023-02-23T06:24:19.590Z,7.80
2023-02-23T06:26:21.253Z,7.80
2023-02-23T06:28:23.413Z,7.80
2023-02-23T06:30:25.104Z,7.80
2023-02-23T06:32:27.015Z,7.80
2023-02-23T06:34:31.524Z,7.80
2023-02-23T06:36:48.278Z,7.90
2023-02-23T06:38:59.879Z,7.80
2023-02-23T06:41:12.668Z,7.90
2023-02-23T06:43:23.256Z,7.90
2023-02-23T06:45:52.818Z,7.80
2023-02-23T06:47:54.428Z,7.80
2023-02-23T06:49:56.052Z,7.90
2023-02-23T06:51:58.186Z,7.90
2023-02-23T06:53:59.758Z,7.90
2023-02-23T06:56:01.653Z,7.90
2023-02-23T06:58:04.949Z,7.90
2023-02-23T07:00:06.919Z,7.90
2023-02-23T07:02:10.826Z,7.90
2023-02-23T07:04:13.669Z,7.90
2023-02-23T07:06:16.518Z,7.90
2023-02-23T07:08:18.564Z,7.90
2023-02-23T07:10:20.512Z,8.00
2023-02-23T07:12:22.286Z,8.00
2023-02-23T07:14:26.941Z,8.00
2023-02-23T07:16:29.282Z,8.00
2023-02-23T07:18:31.203Z,8.00
2023-02-23T07:20:33.143Z,8.10
2023-02-23T07:22:34.816Z,8.00
2023-02-23T07:24:36.605Z,8.00
2023-02-23T07:26:41.124Z,8.10
2023-02-23T07:28:43.668Z,8.10
2023-02-23T07:30:45.557Z,8.10
2023-02-23T07:32:47.890Z,8.10
2023-02-23T07:34:51.010Z,8.10
2023-02-23T07:36:54.575Z,8.10
2023-02-23T07:38:57.474Z,8.10
2023-02-23T07:40:59.158Z,8.20
2023-02-23T07:43:01.010Z,8.20
2023-02-23T07:45:04.373Z,8.20
2023-02-23T07:47:07.386Z,8.20
2023-02-23T07:49:09.432Z,8.20
2023-02-23T07:51:12.706Z,8.30
2023-02-23T07:53:15.118Z,8.30
2023-02-23T07:55:16.725Z,8.40
2023-02-23T07:57:19.972Z,8.60
2023-02-23T07:59:22.319Z,8.70
2023-02-23T08:01:23.938Z,8.70
2023-02-23T08:03:26.239Z,8.80
2023-02-23T08:05:28.264Z,8.90
2023-02-23T08:07:31.985Z,8.90
2023-02-23T08:09:35.085Z,8.90
2023-02-23T08:11:36.678Z,9.00
2023-02-23T08:13:38.884Z,9.00
2023-02-23T08:15:41.663Z,9.00
2023-02-23T08:17:43.651Z,9.10
2023-02-23T08:19:45.471Z,9.20
2023-02-23T08:21:49.667Z,9.10
2023-02-23T08:23:51.622Z,9.20
2023-02-23T08:25:54.091Z,9.20
2023-02-23T08:27:57.101Z,9.20
2023-02-23T08:30:00.712Z,9.20
2023-02-23T08:32:08.191Z,9.20
2023-02-23T08:34:13.040Z,9.20
2023-02-23T08:36:14.717Z,9.20
2023-02-23T08:38:18.430Z,9.30
2023-02-23T08:40:22.301Z,9.40
2023-02-23T08:42:29.935Z,9.40
2023-02-23T08:44:31.645Z,9.50
2023-02-23T08:46:33.364Z,9.50
2023-02-23T08:48:41.110Z,9.50
2023-02-23T08:50:45.025Z,9.50
2023-02-23T08:52:46.762Z,9.50
2023-02-23T08:54:48.364Z,9.40
2023-02-23T08:56:50.070Z,9.50
2023-02-23T08:58:52.413Z,9.50
2023-02-23T09:00:54.303Z,9.60
2023-02-23T09:02:56.946Z,9.70
2023-02-23T09:04:59.201Z,9.70
2023-02-23T09:07:01.416Z,9.80
2023-02-23T09:09:06.343Z,9.80
2023-02-23T09:11:17.133Z,9.70
2023-02-23T09:13:22.034Z,9.80
2023-02-23T09:15:23.754Z,9.80
2023-02-23T09:17:26.392Z,9.90
2023-02-23T09:19:29.063Z,9.90
2023-02-23T09:21:34.229Z,10.00
2023-02-23T09:23:37.097Z,10.00
2023-02-23T09:25:45.418Z,10.00
2023-02-23T09:27:47.078Z,10.00
2023-02-23T09:29:48.762Z,10.00
2023-02-23T09:31:53.015Z,10.00
2023-02-23T09:33:54.779Z,10.00
2023-02-23T09:35:56.524Z,10.00
2023-02-23T09:38:00.486Z,10.00
2023-02-23T09:40:02.117Z,10.00
2023-02-23T09:42:08.285Z,10.10
2023-02-23T09:44:13.171Z,10.10
2023-02-23T09:46:38.320Z,10.20
2023-02-23T09:48:40.285Z,10.30
2023-02-23T09:50:44.053Z,10.30
2023-02-23T09:52:48.952Z,10.30
2023-02-23T09:54:50.897Z,10.40
2023-02-23T09:56:52.964Z,10.50
2023-02-23T09:58:54.566Z,10.60
2023-02-23T10:01:05.165Z,10.70
2023-02-23T10:03:11.464Z,10.80
2023-02-23T10:05:14.029Z,11.00
2023-02-23T10:07:33.959Z,11.20
2023-02-23T10:09:47.906Z,11.20
2023-02-23T10:11:56.404Z,11.30
2023-02-23T10:14:12.986Z,11.40
2023-02-23T10:16:50.357Z,11.50
2023-02-23T10:19:05.923Z,11.50
2023-02-23T10:21:20.039Z,11.80
2023-02-23T10:23:25.898Z,11.90
2023-02-23T10:25:30.708Z,12.00
2023-02-23T10:27:42.013Z,12.10
2023-02-23T10:29:58.400Z,12.10
2023-02-23T10:32:02.425Z,12.20
2023-02-23T10:34:06.641Z,12.30
2023-02-23T10:36:19.611Z,12.30
2023-02-23T10:38:21.209Z,12.50
2023-02-23T10:40:24.431Z,12.60
2023-02-23T10:42:28.876Z,12.60
2023-02-23T10:44:31.241Z,12.70
2023-02-23T10:46:42.787Z,12.70
2023-02-23T10:48:44.798Z,12.70
2023-02-23T10:50:49.069Z,12.60
2023-02-23T10:52:53.116Z,12.60
2023-02-23T10:54:54.936Z,12.70
2023-02-23T10:56:56.793Z,12.80
2023-02-23T10:58:58.865Z,12.80
2023-02-23T11:01:01.942Z,12.80
2023-02-23T11:03:15.725Z,12.80
2023-02-23T11:05:29.423Z,12.90
2023-02-23T11:07:31.943Z,12.90
2023-02-23T11:09:45.625Z,12.80
2023-02-23T11:11:58.932Z,12.90
2023-02-23T11:14:15.848Z,12.90
2023-02-23T11:16:43.601Z,13.10
2023-02-23T11:18:54.567Z,13.20
2023-02-23T11:20:56.397Z,13.30
2023-02-23T11:23:03.653Z,13.40
2023-02-23T11:25:26.074Z,13.50
2023-02-23T11:27:28.117Z,13.80
2023-02-23T11:29:35.223Z,14.00
2023-02-23T11:31:37.288Z,14.20
2023-02-23T11:33:39.806Z,14.10
2023-02-23T11:35:42.569Z,14.10
2023-02-23T11:37:44.154Z,13.80
2023-02-23T11:39:59.278Z,13.50
2023-02-23T11:42:04.942Z,13.80
2023-02-23T11:44:06.672Z,14.00
2023-02-23T11:46:08.818Z,14.30
2023-02-23T11:48:19.289Z,14.40
2023-02-23T11:50:27.018Z,14.50
2023-02-23T11:52:29.720Z,14.60
2023-02-23T11:54:35.724Z,14.60
2023-02-23T11:56:37.357Z,14.80
2023-02-23T11:59:08.819Z,14.70
2023-02-23T12:01:23.573Z,14.70
2023-02-23T12:03:26.331Z,14.60
2023-02-23T12:05:29.436Z,14.60
2023-02-23T12:07:42.258Z,14.50
2023-02-23T12:09:46.277Z,14.40
2023-02-23T12:11:51.223Z,14.50
2023-02-23T12:13:58.936Z,14.00
2023-02-23T12:16:01.311Z,14.20
2023-02-23T12:18:07.366Z,14.70
2023-02-23T12:20:15.438Z,14.80
2023-02-23T12:22:24.344Z,14.90
2023-02-23T12:24:31.989Z,14.90
2023-02-23T12:26:36.912Z,15.00
2023-02-23T12:29:08.266Z,14.80
2023-02-23T12:31:16.070Z,14.80
2023-02-23T12:33:36.506Z,14.90
2023-02-23T12:35:41.135Z,15.00
2023-02-23T12:37:58.663Z,15.10
2023-02-23T12:40:16.625Z,15.10
2023-02-23T12:42:38.018Z,14.70
2023-02-23T12:44:46.033Z,14.80
2023-02-23T12:46:51.168Z,15.10
2023-02-23T12:49:02.430Z,15.30
2023-02-23T12:51:13.004Z,15.60
2023-02-23T12:53:21.788Z,15.60
2023-02-23T12:55:34.148Z,15.50
2023-02-23T12:57:54.857Z,15.30
2023-02-23T12:59:56.471Z,15.40
2023-02-23T13:02:00.748Z,15.20
2023-02-23T13:04:02.504Z,15.10
2023-02-23T13:06:09.402Z,15.00
2023-02-23T13:08:14.050Z,14.70
2023-02-23T13:10:36.189Z,14.40
2023-02-23T13:12:37.895Z,14.30
2023-02-23T13:14:46.836Z,14.20
2023-02-23T13:16:51.078Z,14.10
2023-02-23T13:19:04.783Z,14.00
2023-02-23T13:21:12.859Z,14.00
2023-02-23T13:23:32.991Z,13.90
2023-02-23T13:26:00.539Z,13.90
2023-02-23T13:28:03.608Z,13.80
2023-02-23T13:30:09.336Z,13.80
2023-02-23T13:32:16.098Z,13.70
2023-02-23T13:34:26.364Z,13.70
2023-02-23T13:36:29.812Z,13.70
2023-02-23T13:38:44.016Z,13.60
2023-02-23T13:40:48.478Z,13.70
2023-02-23T13:42:58.603Z,13.70
2023-02-23T13:45:09.818Z,13.60
2023-02-23T13:47:14.912Z,13.60
2023-02-23T13:49:31.812Z,13.60
2023-02-23T13:51:39.416Z,13.60
2023-02-23T13:53:42.920Z,13.60
2023-02-23T13:55:50.016Z,13.70
2023-02-23T13:57:55.139Z,13.70
2023-02-23T13:59:57.618Z,13.70
2023-02-23T14:02:01.257Z,13.70
2023-02-23T14:04:03.971Z,13.70
2023-02-23T14:06:08.007Z,13.80
2023-02-23T14:08:21.125Z,13.70
2023-02-23T14:10:34.812Z,13.70
2023-02-23T14:12:42.994Z,13.70
2023-02-23T14:14:46.138Z,13.80
2023-02-23T14:17:07.726Z,13.80
2023-02-23T14:19:11.119Z,13.80
2023-02-23T14:21:18.560Z,13.70
2023-02-23T14:23:20.348Z,13.70
2023-02-23T14:25:34.321Z,13.70
2023-02-23T14:27:43.181Z,13.70
2023-02-23T14:30:05.084Z,13.60
2023-02-23T14:32:12.759Z,13.60
2023-02-23T14:34:14.528Z,13.70
2023-02-23T14:36:22.195Z,13.80
2023-02-23T14:38:45.805Z,13.80
2023-02-23T14:40:49.608Z,14.10
2023-02-23T14:42:52.944Z,14.30
2023-02-23T14:44:55.306Z,14.00
2023-02-23T14:46:59.659Z,14.00
2023-02-23T14:49:05.784Z,13.80
2023-02-23T14:51:18.951Z,13.60
2023-02-23T14:53:21.986Z,13.50
2023-02-23T14:55:29.253Z,13.50
2023-02-23T14:57:35.558Z,13.50
2023-02-23T14:59:41.297Z,13.40
2023-02-23T15:01:42.978Z,13.40
2023-02-23T15:04:04.687Z,13.30
2023-02-23T15:06:06.314Z,13.30
2023-02-23T15:08:10.743Z,13.30
2023-02-23T15:10:17.448Z,13.30
2023-02-23T15:12:21.192Z,13.40
2023-02-23T15:14:28.519Z,13.40
2023-02-23T15:16:34.868Z,13.40
2023-02-23T15:18:40.506Z,13.50
2023-02-23T15:20:44.051Z,13.40
2023-02-23T15:22:48.651Z,13.50
2023-02-23T15:24:50.305Z,13.50
2023-02-23T15:26:52.464Z,13.40
2023-02-23T15:28:54.124Z,13.40
2023-02-23T15:30:59.207Z,13.30
2023-02-23T15:33:00.908Z,13.20
2023-02-23T15:35:04.473Z,13.10
2023-02-23T15:37:19.844Z,13.10
2023-02-23T15:39:29.678Z,13.10
2023-02-23T15:41:36.757Z,13.30
2023-02-23T15:43:39.821Z,13.60
2023-02-23T15:45:46.575Z,13.60
2023-02-23T15:47:48.552Z,13.50
2023-02-23T15:49:50.213Z,13.50
2023-02-23T15:51:53.273Z,13.50
2023-02-23T15:53:55.364Z,13.40
2023-02-23T15:56:02.906Z,13.50
2023-02-23T15:58:20.615Z,13.40
2023-02-23T16:00:42.572Z,13.40
2023-02-23T16:02:44.548Z,13.40
2023-02-23T16:04:53.591Z,13.20
2023-02-23T16:07:11.675Z,13.10
2023-02-23T16:09:23.914Z,13.20
2023-02-23T16:11:26.226Z,13.10
2023-02-23T16:13:27.962Z,13.10
2023-02-23T16:15:33.092Z,13.10
2023-02-23T16:17:37.760Z,13.10
2023-02-23T16:19:41.429Z,13.20
2023-02-23T16:21:49.304Z,13.20
2023-02-23T16:23:52.707Z,13.10
2023-02-23T16:25:56.619Z,13.00
2023-02-23T16:28:03.047Z,12.90
2023-02-23T16:30:15.726Z,12.80
2023-02-23T16:32:18.823Z,12.70
2023-02-23T16:34:25.380Z,12.60
2023-02-23T16:36:41.069Z,12.60
2023-02-23T16:38:55.697Z,12.50
2023-02-23T16:40:57.352Z,12.50
2023-02-23T16:42:59.631Z,12.40
2023-02-23T16:45:01.719Z,12.30
2023-02-23T16:47:03.376Z,12.20
2023-02-23T16:49:09.912Z,12.20
2023-02-23T16:51:15.668Z,12.10
2023-02-23T16:53:17.505Z,12.10
2023-02-23T16:55:25.590Z,12.10
2023-02-23T16:57:32.149Z,12.10
2023-02-23T16:59:35.166Z,12.00
2023-02-23T17:01:37.005Z,11.90
2023-02-23T17:03:47.347Z,11.90
2023-02-23T17:05:53.738Z,11.90
2023-02-23T17:07:57.531Z,11.80
2023-02-23T17:09:59.581Z,11.80
2023-02-23T17:12:01.382Z,11.70
2023-02-23T17:14:02.986Z,11.70
2023-02-23T17:16:06.946Z,11.60
2023-02-23T17:18:08.560Z,11.60
2023-02-23T17:20:15.621Z,11.50
2023-02-23T17:22:17.205Z,11.50
2023-02-23T17:24:19.045Z,11.50
2023-02-23T17:26:22.637Z,11.40
2023-02-23T17:28:28.452Z,11.40
2023-02-23T17:30:30.473Z,11.40
2023-02-23T17:32:32.731Z,11.50
2023-02-23T17:34:34.410Z,11.40
2023-02-23T17:36:36.008Z,11.40
2023-02-23T17:38:38.453Z,11.40
2023-02-23T17:40:42.099Z,11.40
2023-02-23T17:42:44.019Z,11.30
2023-02-23T17:44:45.697Z,11.30
2023-02-23T17:46:47.668Z,11.30
2023-02-23T17:48:49.510Z,11.30
2023-02-23T17:50:58.670Z,11.30
2023-02-23T17:53:00.302Z,11.40
2023-02-23T17:55:01.978Z,11.40
2023-02-23T17:57:03.613Z,11.40
2023-02-23T17:59:05.192Z,11.40
2023-02-23T18:01:07.235Z,11.40
2023-02-23T18:03:09.294Z,11.40
2023-02-23T18:05:11.703Z,11.40
2023-02-23T18:07:13.323Z,11.30
2023-02-23T18:09:15.162Z,11.30
2023-02-23T18:11:18.672Z,11.30
2023-02-23T18:13:20.894Z,11.20
2023-02-23T18:15:22.571Z,11.20
2023-02-23T18:17:24.224Z,11.20
2023-02-23T18:19:26.186Z,11.20
2023-02-23T18:21:28.065Z,11.20
2023-02-23T18:23:32.453Z,11.20
2023-02-23T18:25:34.157Z,11.20
2023-02-23T18:27:37.855Z,11.20
2023-02-23T18:29:39.561Z,11.10
2023-02-23T18:31:41.332Z,11.10
2023-02-23T18:33:44.666Z,11.10
2023-02-23T18:35:46.408Z,11.10
2023-02-23T18:37:48.625Z,11.10
2023-02-23T18:39:54.174Z,11.10
2023-02-23T18:41:55.902Z,11.00
2023-02-23T18:43:59.291Z,11.10
2023-02-23T18:46:04.629Z,11.10
2023-02-23T18:48:13.674Z,11.10
2023-02-23T18:50:19.017Z,11.10
2023-02-23T18:52:20.903Z,11.10
2023-02-23T18:54:25.958Z,11.10
2023-02-23T18:56:31.413Z,11.20
2023-02-23T18:58:38.876Z,11.10
2023-02-23T19:00:58.947Z,11.20
2023-02-23T19:03:03.551Z,11.20
2023-02-23T19:05:10.351Z,11.20
2023-02-23T19:07:38.261Z,11.20
2023-02-23T19:09:40.984Z,11.10
2023-02-23T19:11:43.639Z,11.10
2023-02-23T19:13:48.255Z,11.10
2023-02-23T19:15:58.809Z,11.10
2023-02-23T19:18:05.981Z,11.10
2023-02-23T19:20:08.491Z,11.10
2023-02-23T19:22:11.092Z,11.10
2023-02-23T19:24:15.503Z,11.20
2023-02-23T19:26:18.660Z,11.20
2023-02-23T19:28:21.270Z,11.10
2023-02-23T19:30:28.364Z,11.10
2023-02-23T19:38:50.933Z,11.10
2023-02-23T19:40:52.500Z,11.10
2023-02-23T19:42:54.129Z,11.00
2023-02-23T19:44:55.828Z,11.00
2023-02-23T19:46:57.613Z,11.00
2023-02-23T19:49:00.100Z,11.00
2023-02-23T19:51:02.056Z,10.90
2023-02-23T19:53:03.631Z,10.90
2023-02-23T19:55:06.227Z,10.80
2023-02-23T19:57:09.927Z,10.80
2023-02-23T19:59:12.045Z,10.80
2023-02-23T20:01:16.686Z,10.80
2023-02-23T20:03:20.067Z,10.80
2023-02-23T20:05:23.369Z,10.80
2023-02-23T20:07:25.372Z,10.80
2023-02-23T20:09:26.998Z,10.70
2023-02-23T20:11:33.066Z,10.70
2023-02-23T20:13:35.013Z,10.70
2023-02-23T20:15:36.990Z,10.70
2023-02-23T20:17:39.976Z,10.70
2023-02-23T20:19:41.733Z,10.70
2023-02-23T20:21:43.822Z,10.70
2023-02-23T20:23:46.463Z,10.60
2023-02-23T20:25:48.198Z,10.60
2023-02-23T20:27:53.178Z,10.60
2023-02-23T20:29:56.320Z,10.60
2023-02-23T20:31:59.826Z,10.60
2023-02-23T20:34:03.931Z,10.70
2023-02-23T20:36:05.708Z,10.70
2023-02-23T20:38:07.383Z,10.60
2023-02-23T20:40:17.438Z,10.60
2023-02-23T20:42:19.059Z,10.60
2023-02-23T20:44:21.952Z,10.50
2023-02-23T20:46:23.957Z,10.50
2023-02-23T20:48:27.240Z,10.50
2023-02-23T20:50:33.146Z,10.50
2023-02-23T20:52:35.544Z,10.60
2023-02-23T20:54:37.181Z,10.50
2023-02-23T20:56:39.851Z,10.60
2023-02-23T20:58:41.494Z,10.60
2023-02-23T21:00:43.816Z,10.50
2023-02-23T21:02:45.378Z,10.50
2023-02-23T21:04:47.014Z,10.60
2023-02-23T21:06:48.709Z,10.60
2023-02-23T21:08:51.170Z,10.50
2023-02-23T21:10:52.753Z,10.40
2023-02-23T21:12:54.336Z,10.30
2023-02-23T21:14:56.052Z,10.30
2023-02-23T21:16:57.742Z,10.30
2023-02-23T21:19:05.715Z,10.30
2023-02-23T21:21:09.509Z,10.20
2023-02-23T21:23:11.257Z,10.10
2023-02-23T21:25:13.104Z,10.10
2023-02-23T21:27:14.791Z,10.10
2023-02-23T21:29:16.855Z,10.10
2023-02-23T21:31:19.143Z,10.00
2023-02-23T21:33:20.948Z,10.00
2023-02-23T21:35:22.687Z,10.00
2023-02-23T21:37:24.452Z,9.90
2023-02-23T21:39:28.187Z,9.90
2023-02-23T21:41:33.643Z,9.80
2023-02-23T21:43:35.646Z,9.90
2023-02-23T21:45:38.879Z,9.80
2023-02-23T21:47:42.571Z,9.80
2023-02-23T21:49:49.067Z,9.80
2023-02-23T21:51:52.580Z,9.70
2023-02-23T21:53:56.017Z,9.70
2023-02-23T21:55:58.222Z,9.70
2023-02-23T21:58:00.719Z,9.60
2023-02-23T22:00:02.585Z,9.50
2023-02-23T22:02:04.261Z,9.40
2023-02-23T22:04:07.478Z,9.40
2023-02-23T22:06:09.601Z,9.30
2023-02-23T22:08:15.792Z,9.30
2023-02-23T22:10:21.985Z,9.30
2023-02-23T22:12:23.782Z,9.20
2023-02-23T22:14:25.548Z,9.20
2023-02-23T22:16:32.007Z,9.10
2023-02-23T22:18:33.841Z,9.20
2023-02-23T22:20:35.449Z,9.20
2023-02-23T22:22:37.108Z,9.20
2023-02-23T22:24:39.120Z,9.20
2023-02-23T22:26:42.052Z,9.20
2023-02-23T22:28:43.675Z,9.20
2023-02-23T22:30:46.252Z,9.20
2023-02-23T22:32:48.155Z,9.20
2023-02-23T22:34:49.902Z,9.30
2023-02-23T22:36:51.685Z,9.30
2023-02-23T22:38:57.258Z,9.30
2023-02-23T22:40:59.602Z,9.30
2023-02-23T22:43:01.204Z,9.30
2023-02-23T22:45:03.863Z,9.30
2023-02-23T22:47:06.512Z,9.30
2023-02-23T22:49:10.588Z,9.30
2023-02-23T22:51:13.106Z,9.30
2023-02-23T22:53:14.736Z,9.30
2023-02-23T22:55:16.513Z,9.30
2023-02-23T22:57:18.250Z,9.20
2023-02-23T22:59:20.404Z,9.30
2023-02-23T23:01:26.523Z,9.20
2023-02-23T23:03:35.991Z,9.20
2023-02-23T23:05:37.690Z,9.20
2023-02-23T23:07:39.287Z,9.20
2023-02-23T23:09:41.301Z,9.20
2023-02-23T23:11:43.008Z,9.20
2023-02-23T23:13:48.360Z,9.20
2023-02-23T23:15:51.745Z,9.30
2023-02-23T23:17:54.875Z,9.30
2023-02-23T23:19:57.480Z,9.30
2023-02-23T23:22:00.466Z,9.30
2023-02-23T23:24:05.619Z,9.20
2023-02-23T23:26:08.606Z,9.20
2023-02-23T23:28:14.273Z,9.20
2023-02-23T23:30:21.031Z,9.20
2023-02-23T23:32:27.444Z,9.20
2023-02-23T23:34:33.318Z,9.20
2023-02-23T23:36:37.280Z,9.30
2023-02-23T23:38:39.011Z,9.30
2023-02-23T23:40:46.841Z,9.30
2023-02-23T23:42:48.558Z,9.30
2023-02-23T23:44:50.672Z,9.20
2023-02-23T23:46:52.818Z,9.10
2023-02-23T23:48:55.972Z,9.10
2023-02-23T23:51:00.915Z,9.10
2023-02-23T23:53:04.457Z,9.10
2023-02-23T23:55:06.870Z,9.10
2023-02-23T23:57:11.258Z,9.10
2023-02-23T23:59:17.096Z,9.20
